Hyde Park, New York
Current Conditions -  °F | °C
As of 4:53 PM on Friday 24 Oct 2014 (Local Time) from KPOU Reporting Station
Overcast Overcast  
Wind Chill: 57°   Ceiling: 4200
Heat Index: 57°   Visibility: 10mi
Dew Point: 45°   Wind: 5mph
Humidity: 64%   Direction: 350°N
Pressure: 29.78"   Gusts: NA
Location:  41.79°N, 73.93°W
Report Text: KPOU 242053Z AUTO 35004KT 10SM OVC042 14/07 A2978 RMK AO2 SLP081 T01390072 51002 TSNO
Loading
Personal Weather Stations






























Interactive Weather Map
Tropical Storm Tracking
New forecast layout! Learn more

10-Day Weather Forecast

Advertisements
Track Severe Weather on mobile